sensor_id;sensor_type;location;lat;lon;timestamp;P1;durP1;ratioP1;P2;durP2;ratioP2
20731;SDS011;10527;52.124;5.196;2022-11-11T00:01:21;8.73;;;5.43;;
20731;SDS011;10527;52.124;5.196;2022-11-11T00:03:48;13.70;;;6.30;;
20731;SDS011;10527;52.124;5.196;2022-11-11T00:06:15;9.30;;;6.00;;
20731;SDS011;10527;52.124;5.196;2022-11-11T00:08:45;13.60;;;5.90;;
20731;SDS011;10527;52.124;5.196;2022-11-11T00:11:13;8.27;;;5.45;;
20731;SDS011;10527;52.124;5.196;2022-11-11T00:13:42;10.07;;;6.35;;
20731;SDS011;10527;52.124;5.196;2022-11-11T00:16:16;10.20;;;5.90;;
20731;SDS011;10527;52.124;5.196;2022-11-11T00:18:45;9.48;;;6.40;;
20731;SDS011;10527;52.124;5.196;2022-11-11T00:21:31;9.35;;;6.38;;
20731;SDS011;10527;52.124;5.196;2022-11-11T00:24:29;12.00;;;6.40;;
20731;SDS011;10527;52.124;5.196;2022-11-11T00:27:15;8.88;;;6.28;;
20731;SDS011;10527;52.124;5.196;2022-11-11T00:29:45;11.07;;;6.47;;
20731;SDS011;10527;52.124;5.196;2022-11-11T00:32:13;9.60;;;7.28;;
20731;SDS011;10527;52.124;5.196;2022-11-11T00:34:52;8.85;;;7.43;;
20731;SDS011;10527;52.124;5.196;2022-11-11T00:37:40;11.93;;;7.97;;
20731;SDS011;10527;52.124;5.196;2022-11-11T00:40:09;12.20;;;8.15;;
20731;SDS011;10527;52.124;5.196;2022-11-11T00:42:42;12.80;;;8.70;;
20731;SDS011;10527;52.124;5.196;2022-11-11T00:45:09;15.45;;;8.93;;
20731;SDS011;10527;52.124;5.196;2022-11-11T00:47:36;15.18;;;11.38;;
20731;SDS011;10527;52.124;5.196;2022-11-11T00:50:27;13.82;;;10.07;;
20731;SDS011;10527;52.124;5.196;2022-11-11T00:53:14;12.32;;;9.23;;
20731;SDS011;10527;52.124;5.196;2022-11-11T00:55:52;15.38;;;10.35;;
20731;SDS011;10527;52.124;5.196;2022-11-11T00:58:21;13.35;;;10.43;;
20731;SDS011;10527;52.124;5.196;2022-11-11T01:00:50;14.40;;;10.50;;
20731;SDS011;10527;52.124;5.196;2022-11-11T01:03:19;17.88;;;11.65;;
20731;SDS011;10527;52.124;5.196;2022-11-11T01:05:48;16.10;;;10.88;;
20731;SDS011;10527;52.124;5.196;2022-11-11T01:08:15;14.77;;;11.63;;
20731;SDS011;10527;52.124;5.196;2022-11-11T01:10:42;16.70;;;11.13;;
20731;SDS011;10527;52.124;5.196;2022-11-11T01:15:56;13.90;;;11.52;;
20731;SDS011;10527;52.124;5.196;2022-11-11T01:18:30;15.02;;;11.00;;
20731;SDS011;10527;52.124;5.196;2022-11-11T01:20:58;16.42;;;11.90;;
20731;SDS011;10527;52.124;5.196;2022-11-11T01:23:39;13.23;;;11.00;;
20731;SDS011;10527;52.124;5.196;2022-11-11T01:26:18;14.02;;;10.75;;
20731;SDS011;10527;52.124;5.196;2022-11-11T01:28:55;14.07;;;10.80;;
20731;SDS011;10527;52.124;5.196;2022-11-11T01:31:25;15.70;;;11.20;;
20731;SDS011;10527;52.124;5.196;2022-11-11T01:33:55;14.43;;;11.88;;
20731;SDS011;10527;52.124;5.196;2022-11-11T01:36:23;15.57;;;11.23;;
20731;SDS011;10527;52.124;5.196;2022-11-11T01:38:53;15.80;;;11.55;;
20731;SDS011;10527;52.124;5.196;2022-11-11T01:41:24;17.17;;;10.75;;
20731;SDS011;10527;52.124;5.196;2022-11-11T01:46:51;17.90;;;12.10;;
20731;SDS011;10527;52.124;5.196;2022-11-11T01:55:17;18.35;;;12.13;;
20731;SDS011;10527;52.124;5.196;2022-11-11T01:57:52;17.58;;;11.80;;
20731;SDS011;10527;52.124;5.196;2022-11-11T02:00:28;15.77;;;12.27;;
20731;SDS011;10527;52.124;5.196;2022-11-11T02:02:57;16.42;;;12.43;;
20731;SDS011;10527;52.124;5.196;2022-11-11T02:05:31;17.53;;;12.93;;
20731;SDS011;10527;52.124;5.196;2022-11-11T02:08:09;20.38;;;12.68;;
20731;SDS011;10527;52.124;5.196;2022-11-11T02:11:08;15.88;;;12.80;;
20731;SDS011;10527;52.124;5.196;2022-11-11T02:14:05;16.83;;;13.23;;
20731;SDS011;10527;52.124;5.196;2022-11-11T02:16:50;17.35;;;12.93;;
20731;SDS011;10527;52.124;5.196;2022-11-11T02:19:18;20.80;;;13.52;;
20731;SDS011;10527;52.124;5.196;2022-11-11T02:22:02;18.83;;;13.07;;
20731;SDS011;10527;52.124;5.196;2022-11-11T02:24:36;23.10;;;13.77;;
20731;SDS011;10527;52.124;5.196;2022-11-11T02:27:07;17.17;;;13.48;;
20731;SDS011;10527;52.124;5.196;2022-11-11T02:29:39;20.27;;;13.57;;
20731;SDS011;10527;52.124;5.196;2022-11-11T02:32:09;16.23;;;12.82;;
20731;SDS011;10527;52.124;5.196;2022-11-11T02:34:36;19.63;;;14.02;;
20731;SDS011;10527;52.124;5.196;2022-11-11T02:37:03;18.83;;;14.00;;
20731;SDS011;10527;52.124;5.196;2022-11-11T02:39:34;19.80;;;12.95;;
20731;SDS011;10527;52.124;5.196;2022-11-11T02:42:28;19.35;;;12.82;;
20731;SDS011;10527;52.124;5.196;2022-11-11T02:44:56;19.30;;;13.98;;
20731;SDS011;10527;52.124;5.196;2022-11-11T02:47:24;21.55;;;14.70;;
20731;SDS011;10527;52.124;5.196;2022-11-11T02:49:52;19.27;;;13.50;;
20731;SDS011;10527;52.124;5.196;2022-11-11T02:52:19;21.30;;;13.73;;
20731;SDS011;10527;52.124;5.196;2022-11-11T02:54:46;22.90;;;13.75;;
20731;SDS011;10527;52.124;5.196;2022-11-11T02:57:14;15.63;;;12.20;;
20731;SDS011;10527;52.124;5.196;2022-11-11T02:59:42;22.50;;;13.52;;
20731;SDS011;10527;52.124;5.196;2022-11-11T03:02:09;17.25;;;12.48;;
20731;SDS011;10527;52.124;5.196;2022-11-11T03:04:37;14.90;;;11.88;;
20731;SDS011;10527;52.124;5.196;2022-11-11T03:07:04;17.33;;;12.77;;
20731;SDS011;10527;52.124;5.196;2022-11-11T03:09:32;19.52;;;12.63;;
20731;SDS011;10527;52.124;5.196;2022-11-11T03:11:59;18.23;;;14.10;;
20731;SDS011;10527;52.124;5.196;2022-11-11T03:14:27;18.92;;;13.90;;
20731;SDS011;10527;52.124;5.196;2022-11-11T03:16:54;18.38;;;12.73;;
20731;SDS011;10527;52.124;5.196;2022-11-11T03:19:40;21.60;;;12.93;;
20731;SDS011;10527;52.124;5.196;2022-11-11T03:22:08;18.17;;;13.60;;
20731;SDS011;10527;52.124;5.196;2022-11-11T03:24:55;18.45;;;14.02;;
20731;SDS011;10527;52.124;5.196;2022-11-11T03:27:40;19.13;;;13.10;;
20731;SDS011;10527;52.124;5.196;2022-11-11T03:33:09;19.42;;;13.20;;
20731;SDS011;10527;52.124;5.196;2022-11-11T03:35:38;19.10;;;13.52;;
20731;SDS011;10527;52.124;5.196;2022-11-11T03:38:08;18.85;;;12.75;;
20731;SDS011;10527;52.124;5.196;2022-11-11T03:40:53;19.60;;;13.73;;
20731;SDS011;10527;52.124;5.196;2022-11-11T03:43:23;19.27;;;14.20;;
20731;SDS011;10527;52.124;5.196;2022-11-11T03:45:58;19.80;;;14.73;;
20731;SDS011;10527;52.124;5.196;2022-11-11T03:48:29;15.15;;;13.00;;
20731;SDS011;10527;52.124;5.196;2022-11-11T03:50:59;18.13;;;12.87;;
20731;SDS011;10527;52.124;5.196;2022-11-11T03:53:26;21.02;;;14.75;;
20731;SDS011;10527;52.124;5.196;2022-11-11T03:55:53;18.77;;;12.85;;
20731;SDS011;10527;52.124;5.196;2022-11-11T03:58:20;16.95;;;13.48;;
20731;SDS011;10527;52.124;5.196;2022-11-11T04:00:46;20.38;;;13.23;;
20731;SDS011;10527;52.124;5.196;2022-11-11T04:03:14;17.97;;;12.73;;
20731;SDS011;10527;52.124;5.196;2022-11-11T04:06:04;18.20;;;13.63;;
20731;SDS011;10527;52.124;5.196;2022-11-11T04:08:50;17.75;;;13.43;;
20731;SDS011;10527;52.124;5.196;2022-11-11T04:11:41;17.50;;;12.95;;
20731;SDS011;10527;52.124;5.196;2022-11-11T04:14:14;16.17;;;13.23;;
20731;SDS011;10527;52.124;5.196;2022-11-11T04:16:59;18.37;;;13.50;;
20731;SDS011;10527;52.124;5.196;2022-11-11T04:19:26;16.95;;;13.50;;
20731;SDS011;10527;52.124;5.196;2022-11-11T04:22:11;17.85;;;13.02;;
20731;SDS011;10527;52.124;5.196;2022-11-11T04:24:38;18.55;;;13.30;;
20731;SDS011;10527;52.124;5.196;2022-11-11T04:27:23;17.92;;;13.38;;
20731;SDS011;10527;52.124;5.196;2022-11-11T04:29:50;15.82;;;12.77;;
20731;SDS011;10527;52.124;5.196;2022-11-11T04:32:18;17.02;;;12.55;;
20731;SDS011;10527;52.124;5.196;2022-11-11T04:35:09;14.82;;;12.65;;
20731;SDS011;10527;52.124;5.196;2022-11-11T04:37:45;19.92;;;13.88;;
20731;SDS011;10527;52.124;5.196;2022-11-11T04:40:37;18.00;;;13.73;;
20731;SDS011;10527;52.124;5.196;2022-11-11T04:43:22;17.48;;;13.43;;
20731;SDS011;10527;52.124;5.196;2022-11-11T04:45:50;17.45;;;12.82;;
20731;SDS011;10527;52.124;5.196;2022-11-11T04:48:16;15.77;;;12.88;;
20731;SDS011;10527;52.124;5.196;2022-11-11T04:50:44;16.83;;;12.03;;
20731;SDS011;10527;52.124;5.196;2022-11-11T04:53:12;19.05;;;12.75;;
20731;SDS011;10527;52.124;5.196;2022-11-11T04:55:40;17.63;;;12.98;;
20731;SDS011;10527;52.124;5.196;2022-11-11T04:58:31;17.98;;;12.25;;
20731;SDS011;10527;52.124;5.196;2022-11-11T05:01:01;17.95;;;12.05;;
20731;SDS011;10527;52.124;5.196;2022-11-11T05:03:28;15.40;;;11.77;;
20731;SDS011;10527;52.124;5.196;2022-11-11T05:05:56;17.48;;;12.60;;
20731;SDS011;10527;52.124;5.196;2022-11-11T05:08:43;13.52;;;10.85;;
20731;SDS011;10527;52.124;5.196;2022-11-11T05:11:25;14.70;;;11.77;;
20731;SDS011;10527;52.124;5.196;2022-11-11T05:13:55;19.33;;;11.15;;
20731;SDS011;10527;52.124;5.196;2022-11-11T05:16:46;14.95;;;10.68;;
20731;SDS011;10527;52.124;5.196;2022-11-11T05:19:43;17.95;;;10.68;;
20731;SDS011;10527;52.124;5.196;2022-11-11T05:22:29;15.40;;;10.23;;
20731;SDS011;10527;52.124;5.196;2022-11-11T05:25:04;15.07;;;9.67;;
20731;SDS011;10527;52.124;5.196;2022-11-11T05:27:54;12.60;;;10.10;;
20731;SDS011;10527;52.124;5.196;2022-11-11T05:30:26;14.23;;;9.03;;
20731;SDS011;10527;52.124;5.196;2022-11-11T05:33:11;18.00;;;10.30;;
20731;SDS011;10527;52.124;5.196;2022-11-11T05:35:37;13.87;;;10.03;;
20731;SDS011;10527;52.124;5.196;2022-11-11T05:38:04;13.33;;;9.57;;
20731;SDS011;10527;52.124;5.196;2022-11-11T05:40:51;13.17;;;9.90;;
20731;SDS011;10527;52.124;5.196;2022-11-11T05:43:21;16.23;;;11.17;;
20731;SDS011;10527;52.124;5.196;2022-11-11T05:45:48;21.17;;;13.90;;
20731;SDS011;10527;52.124;5.196;2022-11-11T05:48:15;15.10;;;11.40;;
20731;SDS011;10527;52.124;5.196;2022-11-11T05:50:41;13.47;;;10.40;;
20731;SDS011;10527;52.124;5.196;2022-11-11T05:53:09;14.50;;;9.77;;
20731;SDS011;10527;52.124;5.196;2022-11-11T05:55:36;12.57;;;9.27;;
20731;SDS011;10527;52.124;5.196;2022-11-11T05:58:02;11.83;;;9.23;;
20731;SDS011;10527;52.124;5.196;2022-11-11T06:00:29;12.83;;;9.10;;
20731;SDS011;10527;52.124;5.196;2022-11-11T06:03:03;13.60;;;9.60;;
20731;SDS011;10527;52.124;5.196;2022-11-11T06:05:34;10.20;;;8.30;;
20731;SDS011;10527;52.124;5.196;2022-11-11T06:08:02;13.00;;;8.53;;
20731;SDS011;10527;52.124;5.196;2022-11-11T06:10:30;15.20;;;9.53;;
20731;SDS011;10527;52.124;5.196;2022-11-11T06:12:57;11.10;;;9.23;;
20731;SDS011;10527;52.124;5.196;2022-11-11T06:15:30;11.90;;;8.13;;
20731;SDS011;10527;52.124;5.196;2022-11-11T06:17:58;13.97;;;8.90;;
20731;SDS011;10527;52.124;5.196;2022-11-11T06:20:25;13.13;;;9.30;;
20731;SDS011;10527;52.124;5.196;2022-11-11T06:22:52;10.90;;;9.00;;
20731;SDS011;10527;52.124;5.196;2022-11-11T06:25:26;13.47;;;9.60;;
20731;SDS011;10527;52.124;5.196;2022-11-11T06:28:14;13.80;;;9.00;;
20731;SDS011;10527;52.124;5.196;2022-11-11T06:30:42;11.37;;;8.50;;
20731;SDS011;10527;52.124;5.196;2022-11-11T06:33:16;12.00;;;8.82;;
20731;SDS011;10527;52.124;5.196;2022-11-11T06:35:43;11.95;;;9.80;;
20731;SDS011;10527;52.124;5.196;2022-11-11T06:38:10;13.57;;;9.17;;
20731;SDS011;10527;52.124;5.196;2022-11-11T06:40:37;14.20;;;9.07;;
20731;SDS011;10527;52.124;5.196;2022-11-11T06:43:07;10.65;;;9.15;;
20731;SDS011;10527;52.124;5.196;2022-11-11T06:45:34;12.33;;;8.73;;
20731;SDS011;10527;52.124;5.196;2022-11-11T06:48:02;12.20;;;8.60;;
20731;SDS011;10527;52.124;5.196;2022-11-11T06:50:33;16.07;;;9.87;;
20731;SDS011;10527;52.124;5.196;2022-11-11T06:53:04;11.63;;;10.13;;
20731;SDS011;10527;52.124;5.196;2022-11-11T06:55:37;14.05;;;10.48;;
20731;SDS011;10527;52.124;5.196;2022-11-11T06:58:04;13.30;;;10.80;;
20731;SDS011;10527;52.124;5.196;2022-11-11T07:00:32;12.83;;;9.87;;
20731;SDS011;10527;52.124;5.196;2022-11-11T07:03:01;12.63;;;10.50;;
20731;SDS011;10527;52.124;5.196;2022-11-11T07:05:51;14.20;;;9.87;;
20731;SDS011;10527;52.124;5.196;2022-11-11T07:08:24;13.23;;;11.03;;
20731;SDS011;10527;52.124;5.196;2022-11-11T07:10:52;15.70;;;10.43;;
20731;SDS011;10527;52.124;5.196;2022-11-11T07:13:19;13.83;;;10.07;;
20731;SDS011;10527;52.124;5.196;2022-11-11T07:15:46;12.43;;;10.33;;
20731;SDS011;10527;52.124;5.196;2022-11-11T07:18:13;16.55;;;10.77;;
20731;SDS011;10527;52.124;5.196;2022-11-11T07:20:40;13.60;;;10.10;;
20731;SDS011;10527;52.124;5.196;2022-11-11T07:23:07;11.15;;;9.05;;
20731;SDS011;10527;52.124;5.196;2022-11-11T07:25:34;13.27;;;9.80;;
20731;SDS011;10527;52.124;5.196;2022-11-11T07:28:00;11.10;;;9.50;;
20731;SDS011;10527;52.124;5.196;2022-11-11T07:30:27;14.32;;;9.70;;
20731;SDS011;10527;52.124;5.196;2022-11-11T07:32:56;11.88;;;10.15;;
20731;SDS011;10527;52.124;5.196;2022-11-11T07:35:24;11.67;;;9.00;;
20731;SDS011;10527;52.124;5.196;2022-11-11T07:37:51;10.73;;;9.50;;
20731;SDS011;10527;52.124;5.196;2022-11-11T07:40:20;11.98;;;9.63;;
20731;SDS011;10527;52.124;5.196;2022-11-11T07:43:04;12.02;;;9.23;;
20731;SDS011;10527;52.124;5.196;2022-11-11T07:45:31;14.00;;;10.65;;
20731;SDS011;10527;52.124;5.196;2022-11-11T07:47:57;13.07;;;9.02;;
20731;SDS011;10527;52.124;5.196;2022-11-11T07:50:24;13.52;;;8.85;;
20731;SDS011;10527;52.124;5.196;2022-11-11T07:52:51;15.00;;;9.77;;
20731;SDS011;10527;52.124;5.196;2022-11-11T07:55:18;13.20;;;9.63;;
20731;SDS011;10527;52.124;5.196;2022-11-11T07:57:45;11.87;;;8.70;;
20731;SDS011;10527;52.124;5.196;2022-11-11T08:00:12;12.60;;;9.53;;
20731;SDS011;10527;52.124;5.196;2022-11-11T08:02:39;10.73;;;8.83;;
20731;SDS011;10527;52.124;5.196;2022-11-11T08:05:06;12.70;;;8.90;;
20731;SDS011;10527;52.124;5.196;2022-11-11T08:07:34;13.93;;;9.77;;
20731;SDS011;10527;52.124;5.196;2022-11-11T08:10:02;12.40;;;8.93;;
20731;SDS011;10527;52.124;5.196;2022-11-11T08:12:29;13.20;;;9.23;;
20731;SDS011;10527;52.124;5.196;2022-11-11T08:15:15;15.75;;;9.85;;
20731;SDS011;10527;52.124;5.196;2022-11-11T08:17:42;14.43;;;10.27;;
20731;SDS011;10527;52.124;5.196;2022-11-11T08:20:09;12.70;;;10.52;;
20731;SDS011;10527;52.124;5.196;2022-11-11T08:22:41;16.80;;;9.90;;
20731;SDS011;10527;52.124;5.196;2022-11-11T08:25:28;14.63;;;10.23;;
20731;SDS011;10527;52.124;5.196;2022-11-11T08:27:59;15.17;;;10.97;;
20731;SDS011;10527;52.124;5.196;2022-11-11T08:30:32;14.57;;;10.57;;
20731;SDS011;10527;52.124;5.196;2022-11-11T08:32:59;16.40;;;11.77;;
20731;SDS011;10527;52.124;5.196;2022-11-11T08:35:48;15.32;;;11.88;;
20731;SDS011;10527;52.124;5.196;2022-11-11T08:38:15;19.27;;;13.20;;
20731;SDS011;10527;52.124;5.196;2022-11-11T08:40:42;17.60;;;12.87;;
20731;SDS011;10527;52.124;5.196;2022-11-11T08:43:09;15.53;;;12.10;;
20731;SDS011;10527;52.124;5.196;2022-11-11T08:45:36;17.17;;;12.63;;
20731;SDS011;10527;52.124;5.196;2022-11-11T08:48:05;18.23;;;13.07;;
20731;SDS011;10527;52.124;5.196;2022-11-11T08:50:37;16.70;;;11.53;;
20731;SDS011;10527;52.124;5.196;2022-11-11T08:53:06;16.10;;;12.15;;
20731;SDS011;10527;52.124;5.196;2022-11-11T08:55:34;15.85;;;11.43;;
20731;SDS011;10527;52.124;5.196;2022-11-11T08:58:02;18.77;;;12.10;;
20731;SDS011;10527;52.124;5.196;2022-11-11T09:00:32;15.68;;;11.80;;
20731;SDS011;10527;52.124;5.196;2022-11-11T09:03:01;15.15;;;11.07;;
20731;SDS011;10527;52.124;5.196;2022-11-11T09:05:32;15.37;;;11.37;;
20731;SDS011;10527;52.124;5.196;2022-11-11T09:07:59;16.67;;;11.77;;
20731;SDS011;10527;52.124;5.196;2022-11-11T09:10:27;18.33;;;11.80;;
20731;SDS011;10527;52.124;5.196;2022-11-11T09:12:55;16.63;;;12.88;;
20731;SDS011;10527;52.124;5.196;2022-11-11T09:15:23;18.57;;;13.13;;
20731;SDS011;10527;52.124;5.196;2022-11-11T09:17:51;15.93;;;11.90;;
20731;SDS011;10527;52.124;5.196;2022-11-11T09:20:19;15.70;;;12.37;;
20731;SDS011;10527;52.124;5.196;2022-11-11T09:22:50;19.73;;;12.77;;
20731;SDS011;10527;52.124;5.196;2022-11-11T09:25:18;16.57;;;12.33;;
20731;SDS011;10527;52.124;5.196;2022-11-11T09:27:55;15.77;;;11.57;;
20731;SDS011;10527;52.124;5.196;2022-11-11T09:30:24;17.20;;;12.40;;
20731;SDS011;10527;52.124;5.196;2022-11-11T09:32:53;16.87;;;11.53;;
20731;SDS011;10527;52.124;5.196;2022-11-11T09:35:21;18.40;;;12.10;;
20731;SDS011;10527;52.124;5.196;2022-11-11T09:37:56;15.57;;;12.37;;
20731;SDS011;10527;52.124;5.196;2022-11-11T09:40:26;16.83;;;11.93;;
20731;SDS011;10527;52.124;5.196;2022-11-11T09:43:11;16.03;;;11.87;;
20731;SDS011;10527;52.124;5.196;2022-11-11T09:46:28;19.40;;;11.43;;
20731;SDS011;10527;52.124;5.196;2022-11-11T09:52:04;15.75;;;11.57;;
20731;SDS011;10527;52.124;5.196;2022-11-11T09:54:53;17.05;;;11.27;;
20731;SDS011;10527;52.124;5.196;2022-11-11T09:57:36;14.33;;;10.43;;
20731;SDS011;10527;52.124;5.196;2022-11-11T10:00:16;13.77;;;9.93;;
20731;SDS011;10527;52.124;5.196;2022-11-11T10:02:52;15.32;;;11.20;;
20731;SDS011;10527;52.124;5.196;2022-11-11T10:05:36;14.53;;;11.00;;
20731;SDS011;10527;52.124;5.196;2022-11-11T10:08:16;12.88;;;9.55;;
20731;SDS011;10527;52.124;5.196;2022-11-11T10:10:57;15.60;;;10.53;;
20731;SDS011;10527;52.124;5.196;2022-11-11T10:13:29;14.07;;;10.68;;
20731;SDS011;10527;52.124;5.196;2022-11-11T10:16:05;15.43;;;10.57;;
20731;SDS011;10527;52.124;5.196;2022-11-11T10:22:10;14.15;;;10.95;;
20731;SDS011;10527;52.124;5.196;2022-11-11T10:24:40;13.80;;;10.93;;
20731;SDS011;10527;52.124;5.196;2022-11-11T10:27:17;13.65;;;10.75;;
20731;SDS011;10527;52.124;5.196;2022-11-11T10:29:48;17.40;;;10.85;;
20731;SDS011;10527;52.124;5.196;2022-11-11T10:32:23;14.85;;;10.38;;
20731;SDS011;10527;52.124;5.196;2022-11-11T10:34:56;15.82;;;10.52;;
20731;SDS011;10527;52.124;5.196;2022-11-11T10:38:16;14.25;;;10.77;;
20731;SDS011;10527;52.124;5.196;2022-11-11T10:44:31;13.73;;;10.45;;
20731;SDS011;10527;52.124;5.196;2022-11-11T10:50:14;15.00;;;10.98;;
20731;SDS011;10527;52.124;5.196;2022-11-11T10:52:58;16.33;;;11.43;;
20731;SDS011;10527;52.124;5.196;2022-11-11T10:58:30;15.10;;;11.20;;
20731;SDS011;10527;52.124;5.196;2022-11-11T11:04:55;14.07;;;11.07;;
20731;SDS011;10527;52.124;5.196;2022-11-11T11:07:40;13.05;;;10.18;;
20731;SDS011;10527;52.124;5.196;2022-11-11T11:10:20;15.00;;;11.82;;
20731;SDS011;10527;52.124;5.196;2022-11-11T11:13:16;14.35;;;11.55;;
20731;SDS011;10527;52.124;5.196;2022-11-11T11:22:00;17.42;;;10.77;;
20731;SDS011;10527;52.124;5.196;2022-11-11T11:27:08;14.77;;;11.20;;
20731;SDS011;10527;52.124;5.196;2022-11-11T11:32:14;17.05;;;11.43;;
20731;SDS011;10527;52.124;5.196;2022-11-11T11:34:50;14.45;;;12.30;;
20731;SDS011;10527;52.124;5.196;2022-11-11T11:37:21;16.75;;;12.38;;
20731;SDS011;10527;52.124;5.196;2022-11-11T11:40:00;14.60;;;11.50;;
20731;SDS011;10527;52.124;5.196;2022-11-11T11:42:35;15.88;;;11.43;;
20731;SDS011;10527;52.124;5.196;2022-11-11T11:51:01;18.23;;;12.23;;
20731;SDS011;10527;52.124;5.196;2022-11-11T11:56:55;18.00;;;10.75;;
20731;SDS011;10527;52.124;5.196;2022-11-11T12:14:58;12.60;;;10.00;;
20731;SDS011;10527;52.124;5.196;2022-11-11T12:20:39;14.38;;;11.32;;
20731;SDS011;10527;52.124;5.196;2022-11-11T12:23:49;16.55;;;11.25;;
20731;SDS011;10527;52.124;5.196;2022-11-11T12:48:10;15.18;;;9.85;;
20731;SDS011;10527;52.124;5.196;2022-11-11T12:54:24;13.23;;;9.60;;
20731;SDS011;10527;52.124;5.196;2022-11-11T13:05:50;11.13;;;9.30;;
20731;SDS011;10527;52.124;5.196;2022-11-11T13:18:18;11.32;;;8.68;;
20731;SDS011;10527;52.124;5.196;2022-11-11T13:21:18;13.50;;;8.85;;
20731;SDS011;10527;52.124;5.196;2022-11-11T13:23:56;12.95;;;8.02;;
20731;SDS011;10527;52.124;5.196;2022-11-11T13:26:42;15.85;;;9.13;;
20731;SDS011;10527;52.124;5.196;2022-11-11T13:32:23;10.48;;;7.90;;
20731;SDS011;10527;52.124;5.196;2022-11-11T13:35:42;9.82;;;7.50;;
20731;SDS011;10527;52.124;5.196;2022-11-11T13:38:23;12.63;;;7.95;;
20731;SDS011;10527;52.124;5.196;2022-11-11T13:41:04;11.25;;;8.32;;
20731;SDS011;10527;52.124;5.196;2022-11-11T13:43:40;11.90;;;7.70;;
20731;SDS011;10527;52.124;5.196;2022-11-11T13:46:30;12.95;;;8.18;;
20731;SDS011;10527;52.124;5.196;2022-11-11T13:58:06;11.32;;;7.55;;
20731;SDS011;10527;52.124;5.196;2022-11-11T14:01:01;9.52;;;6.70;;
20731;SDS011;10527;52.124;5.196;2022-11-11T14:17:10;8.80;;;6.47;;
20731;SDS011;10527;52.124;5.196;2022-11-11T14:19:45;9.60;;;6.90;;
20731;SDS011;10527;52.124;5.196;2022-11-11T14:22:28;12.48;;;7.57;;
20731;SDS011;10527;52.124;5.196;2022-11-11T14:27:51;8.43;;;7.10;;
20731;SDS011;10527;52.124;5.196;2022-11-11T14:30:28;8.77;;;6.93;;
20731;SDS011;10527;52.124;5.196;2022-11-11T14:36:47;7.85;;;5.95;;
20731;SDS011;10527;52.124;5.196;2022-11-11T14:45:02;11.48;;;6.38;;
20731;SDS011;10527;52.124;5.196;2022-11-11T14:48:00;9.50;;;6.47;;
20731;SDS011;10527;52.124;5.196;2022-11-11T14:55:46;8.45;;;5.10;;
20731;SDS011;10527;52.124;5.196;2022-11-11T14:58:24;8.60;;;5.32;;
20731;SDS011;10527;52.124;5.196;2022-11-11T15:01:09;9.95;;;5.78;;
20731;SDS011;10527;52.124;5.196;2022-11-11T15:03:54;8.13;;;5.47;;
20731;SDS011;10527;52.124;5.196;2022-11-11T15:21:18;7.53;;;4.78;;
20731;SDS011;10527;52.124;5.196;2022-11-11T15:29:55;5.97;;;4.25;;
20731;SDS011;10527;52.124;5.196;2022-11-11T15:38:12;6.97;;;4.57;;
20731;SDS011;10527;52.124;5.196;2022-11-11T15:40:44;8.02;;;4.90;;
20731;SDS011;10527;52.124;5.196;2022-11-11T15:43:29;7.10;;;4.70;;
20731;SDS011;10527;52.124;5.196;2022-11-11T15:46:00;7.65;;;4.82;;
20731;SDS011;10527;52.124;5.196;2022-11-11T15:48:41;8.02;;;4.22;;
20731;SDS011;10527;52.124;5.196;2022-11-11T15:53:48;7.30;;;4.88;;
20731;SDS011;10527;52.124;5.196;2022-11-11T15:56:32;9.32;;;5.00;;
20731;SDS011;10527;52.124;5.196;2022-11-11T16:01:57;7.70;;;4.47;;
20731;SDS011;10527;52.124;5.196;2022-11-11T16:04:24;6.10;;;4.32;;
20731;SDS011;10527;52.124;5.196;2022-11-11T16:07:22;15.30;;;10.95;;
20731;SDS011;10527;52.124;5.196;2022-11-11T16:09:53;11.40;;;8.27;;
20731;SDS011;10527;52.124;5.196;2022-11-11T16:12:31;7.88;;;6.68;;
20731;SDS011;10527;52.124;5.196;2022-11-11T16:18:25;8.50;;;4.95;;
20731;SDS011;10527;52.124;5.196;2022-11-11T16:20:59;7.60;;;5.28;;
20731;SDS011;10527;52.124;5.196;2022-11-11T16:23:39;7.85;;;5.30;;
20731;SDS011;10527;52.124;5.196;2022-11-11T16:26:07;8.73;;;5.63;;
20731;SDS011;10527;52.124;5.196;2022-11-11T16:28:42;6.95;;;4.93;;
20731;SDS011;10527;52.124;5.196;2022-11-11T16:31:18;8.98;;;5.07;;
20731;SDS011;10527;52.124;5.196;2022-11-11T16:37:07;9.13;;;5.85;;
20731;SDS011;10527;52.124;5.196;2022-11-11T16:39:41;7.13;;;5.18;;
20731;SDS011;10527;52.124;5.196;2022-11-11T16:44:57;7.32;;;4.95;;
20731;SDS011;10527;52.124;5.196;2022-11-11T16:52:37;6.50;;;4.75;;
20731;SDS011;10527;52.124;5.196;2022-11-11T16:55:27;7.63;;;5.30;;
20731;SDS011;10527;52.124;5.196;2022-11-11T16:58:02;11.02;;;5.85;;
20731;SDS011;10527;52.124;5.196;2022-11-11T17:00:41;7.53;;;5.40;;
20731;SDS011;10527;52.124;5.196;2022-11-11T17:08:31;8.50;;;5.22;;
20731;SDS011;10527;52.124;5.196;2022-11-11T17:11:06;8.23;;;4.90;;
20731;SDS011;10527;52.124;5.196;2022-11-11T17:13:58;7.13;;;5.10;;
20731;SDS011;10527;52.124;5.196;2022-11-11T17:16:24;6.03;;;4.63;;
20731;SDS011;10527;52.124;5.196;2022-11-11T17:18:51;7.93;;;4.13;;
20731;SDS011;10527;52.124;5.196;2022-11-11T17:21:18;7.18;;;4.28;;
20731;SDS011;10527;52.124;5.196;2022-11-11T17:23:44;8.27;;;4.68;;
20731;SDS011;10527;52.124;5.196;2022-11-11T17:26:11;6.32;;;4.90;;
20731;SDS011;10527;52.124;5.196;2022-11-11T17:28:38;9.43;;;5.47;;
20731;SDS011;10527;52.124;5.196;2022-11-11T17:31:05;7.75;;;5.22;;
20731;SDS011;10527;52.124;5.196;2022-11-11T17:33:35;7.93;;;4.93;;
20731;SDS011;10527;52.124;5.196;2022-11-11T17:36:02;7.75;;;4.80;;
20731;SDS011;10527;52.124;5.196;2022-11-11T17:38:36;6.20;;;4.97;;
20731;SDS011;10527;52.124;5.196;2022-11-11T17:41:03;7.53;;;4.78;;
20731;SDS011;10527;52.124;5.196;2022-11-11T17:43:31;6.85;;;5.10;;
20731;SDS011;10527;52.124;5.196;2022-11-11T17:46:01;6.73;;;4.57;;
20731;SDS011;10527;52.124;5.196;2022-11-11T17:48:29;8.83;;;5.93;;
20731;SDS011;10527;52.124;5.196;2022-11-11T17:50:57;6.55;;;4.22;;
20731;SDS011;10527;52.124;5.196;2022-11-11T17:53:32;7.57;;;5.13;;
20731;SDS011;10527;52.124;5.196;2022-11-11T17:56:02;6.60;;;4.30;;
20731;SDS011;10527;52.124;5.196;2022-11-11T17:58:30;5.60;;;4.77;;
20731;SDS011;10527;52.124;5.196;2022-11-11T18:01:09;6.38;;;5.13;;
20731;SDS011;10527;52.124;5.196;2022-11-11T18:03:40;8.07;;;4.90;;
20731;SDS011;10527;52.124;5.196;2022-11-11T18:06:07;6.00;;;4.70;;
20731;SDS011;10527;52.124;5.196;2022-11-11T18:08:35;5.70;;;4.23;;
20731;SDS011;10527;52.124;5.196;2022-11-11T18:11:02;6.57;;;3.83;;
20731;SDS011;10527;52.124;5.196;2022-11-11T18:13:33;5.72;;;4.05;;
20731;SDS011;10527;52.124;5.196;2022-11-11T18:16:00;8.57;;;4.77;;
20731;SDS011;10527;52.124;5.196;2022-11-11T18:18:31;8.32;;;5.40;;
20731;SDS011;10527;52.124;5.196;2022-11-11T18:20:59;6.20;;;4.20;;
20731;SDS011;10527;52.124;5.196;2022-11-11T18:23:36;5.43;;;3.75;;
20731;SDS011;10527;52.124;5.196;2022-11-11T18:26:05;5.53;;;3.67;;
20731;SDS011;10527;52.124;5.196;2022-11-11T18:28:34;7.85;;;5.90;;
20731;SDS011;10527;52.124;5.196;2022-11-11T18:31:07;7.75;;;4.63;;
20731;SDS011;10527;52.124;5.196;2022-11-11T18:33:39;5.90;;;4.20;;
20731;SDS011;10527;52.124;5.196;2022-11-11T18:36:11;6.18;;;4.63;;
20731;SDS011;10527;52.124;5.196;2022-11-11T18:38:42;8.00;;;4.30;;
20731;SDS011;10527;52.124;5.196;2022-11-11T18:41:14;5.60;;;4.27;;
20731;SDS011;10527;52.124;5.196;2022-11-11T18:43:47;6.17;;;4.30;;